createdAt,value
2017-11-13T00:02:18.673Z,62.10
2017-11-13T00:04:46.952Z,62.10
2017-11-13T00:07:15.327Z,62.10
2017-11-13T00:09:43.593Z,61.80
2017-11-13T00:12:12.296Z,62.10
2017-11-13T00:14:40.600Z,62.10
2017-11-13T00:17:10.416Z,62.40
2017-11-13T00:19:38.668Z,62.20
2017-11-13T00:22:06.954Z,61.70
2017-11-13T00:24:35.223Z,61.70
2017-11-13T00:27:03.467Z,61.80
2017-11-13T00:29:31.753Z,61.60
2017-11-13T00:32:00.006Z,61.80
2017-11-13T00:34:29.030Z,62.00
2017-11-13T00:36:57.326Z,62.00
2017-11-13T00:39:25.634Z,61.80
2017-11-13T00:41:54.777Z,61.70
2017-11-13T00:44:23.049Z,62.10
2017-11-13T00:46:51.302Z,61.70
2017-11-13T00:49:20.521Z,61.50
2017-11-13T00:51:49.585Z,61.50
2017-11-13T00:54:17.840Z,61.20
2017-11-13T00:56:46.092Z,61.40
2017-11-13T00:59:14.582Z,61.40
2017-11-13T01:01:42.906Z,61.50
2017-11-13T01:04:11.186Z,61.40
2017-11-13T01:06:39.560Z,61.50
2017-11-13T01:09:07.836Z,61.30
2017-11-13T01:11:36.089Z,61.00
2017-11-13T01:14:04.455Z,60.70
2017-11-13T01:16:32.868Z,60.70
2017-11-13T01:19:01.094Z,60.20
2017-11-13T01:21:29.390Z,60.60
2017-11-13T01:23:58.615Z,60.20
2017-11-13T01:26:27.815Z,60.20
2017-11-13T01:28:57.118Z,60.20
2017-11-13T01:31:26.218Z,60.20
2017-11-13T01:33:55.310Z,60.00
2017-11-13T01:36:23.551Z,60.00
2017-11-13T01:38:52.300Z,59.60
2017-11-13T01:41:21.333Z,59.50
2017-11-13T01:43:49.648Z,59.60
2017-11-13T01:46:17.971Z,59.90
2017-11-13T01:48:47.033Z,59.70
2017-11-13T01:51:16.208Z,59.70
2017-11-13T01:53:44.474Z,59.90
2017-11-13T01:56:12.879Z,59.80
2017-11-13T01:58:41.114Z,60.10
2017-11-13T02:01:09.543Z,60.00
2017-11-13T02:03:38.567Z,59.80
2017-11-13T02:06:06.899Z,59.80
2017-11-13T02:08:35.962Z,59.90
2017-11-13T02:11:04.366Z,59.70
2017-11-13T02:13:32.635Z,59.70
2017-11-13T02:16:00.911Z,59.80
2017-11-13T02:18:29.166Z,59.90
2017-11-13T02:20:58.258Z,60.00
2017-11-13T02:23:26.539Z,59.90
2017-11-13T02:25:54.883Z,60.10
2017-11-13T02:28:23.178Z,59.90
2017-11-13T02:30:51.446Z,59.90
2017-11-13T02:33:19.726Z,60.30
2017-11-13T02:35:48.026Z,60.10
2017-11-13T02:38:16.290Z,60.40
2017-11-13T02:40:44.547Z,60.40
2017-11-13T02:43:12.843Z,60.10
2017-11-13T02:45:41.105Z,60.40
2017-11-13T02:48:09.373Z,60.20
2017-11-13T02:50:37.675Z,60.40
2017-11-13T02:53:05.946Z,59.90
2017-11-13T02:55:34.243Z,60.20
2017-11-13T02:58:02.538Z,59.90
2017-11-13T03:00:31.567Z,59.50
2017-11-13T03:02:59.901Z,59.70
2017-11-13T03:05:28.166Z,59.50
2017-11-13T03:07:56.630Z,59.20
2017-11-13T03:10:24.897Z,59.50
2017-11-13T03:12:53.139Z,59.50
2017-11-13T03:15:21.417Z,59.40
2017-11-13T03:17:49.735Z,59.30
2017-11-13T03:20:18.000Z,59.50
2017-11-13T03:22:46.271Z,59.70
2017-11-13T03:25:14.578Z,59.30
2017-11-13T03:27:42.906Z,59.50
2017-11-13T03:30:11.158Z,59.80
2017-11-13T03:32:39.396Z,59.70
2017-11-13T03:35:07.659Z,59.40
2017-11-13T03:37:36.796Z,59.20
2017-11-13T03:40:05.051Z,59.20
2017-11-13T03:42:34.143Z,59.40
2017-11-13T03:45:02.435Z,59.60
2017-11-13T03:47:30.743Z,59.60
2017-11-13T03:49:59.041Z,59.30
2017-11-13T03:52:27.320Z,59.60
2017-11-13T03:54:55.554Z,59.80
2017-11-13T03:57:24.709Z,59.40
2017-11-13T03:59:52.999Z,59.40
2017-11-13T04:02:21.227Z,59.40
2017-11-13T04:04:49.540Z,59.50
2017-11-13T04:07:17.786Z,59.80
2017-11-13T04:09:46.051Z,59.90
2017-11-13T04:12:14.350Z,59.90
2017-11-13T04:14:42.615Z,59.70
2017-11-13T04:17:11.097Z,59.90
2017-11-13T04:19:39.502Z,60.00
2017-11-13T04:22:07.782Z,60.00
2017-11-13T04:24:36.085Z,60.30
2017-11-13T04:27:04.341Z,60.30
2017-11-13T04:29:33.384Z,60.20
2017-11-13T04:32:02.426Z,60.60
2017-11-13T04:34:30.714Z,60.50
2017-11-13T04:36:59.018Z,60.50
2017-11-13T04:39:27.270Z,60.80
2017-11-13T04:41:56.277Z,60.80
2017-11-13T04:44:25.583Z,60.80
2017-11-13T04:46:53.817Z,60.60
2017-11-13T04:49:22.143Z,60.80
2017-11-13T04:51:50.398Z,60.60
2017-11-13T04:54:18.673Z,60.70
2017-11-13T04:56:47.703Z,60.60
2017-11-13T04:59:15.957Z,60.90
2017-11-13T05:01:44.234Z,61.10
2017-11-13T05:04:13.365Z,60.80
2017-11-13T05:06:41.623Z,61.40
2017-11-13T05:09:09.925Z,60.90
2017-11-13T05:11:38.178Z,60.70
2017-11-13T05:14:06.459Z,61.00
2017-11-13T05:16:35.793Z,60.70
2017-11-13T05:19:04.632Z,60.70
2017-11-13T05:21:33.020Z,60.80
2017-11-13T05:24:01.302Z,61.10
2017-11-13T05:26:30.478Z,61.20
2017-11-13T05:28:59.690Z,61.50
2017-11-13T05:31:28.702Z,61.50
2017-11-13T05:33:56.933Z,61.40
2017-11-13T05:36:25.226Z,61.10
2017-11-13T05:38:53.486Z,60.80
2017-11-13T05:41:21.757Z,60.50
2017-11-13T05:43:50.051Z,60.70
2017-11-13T05:46:18.296Z,60.60
2017-11-13T05:48:47.431Z,60.80
2017-11-13T05:51:15.766Z,60.80
2017-11-13T05:53:44.015Z,60.70
2017-11-13T05:56:12.275Z,60.40
2017-11-13T05:58:41.310Z,60.70
2017-11-13T06:01:09.927Z,60.60
2017-11-13T06:03:38.416Z,60.50
2017-11-13T06:06:07.447Z,60.70
2017-11-13T06:08:36.562Z,60.70
2017-11-13T06:11:05.691Z,60.90
2017-11-13T06:13:33.930Z,60.70
2017-11-13T06:16:02.238Z,61.00
2017-11-13T06:18:30.539Z,61.00
2017-11-13T06:20:58.783Z,61.20
2017-11-13T06:23:27.066Z,61.20
2017-11-13T06:25:55.315Z,61.50
2017-11-13T06:28:23.612Z,61.40
2017-11-13T06:30:51.875Z,61.10
2017-11-13T06:33:20.119Z,61.10
2017-11-13T06:35:48.405Z,61.10
2017-11-13T06:38:16.659Z,61.10
2017-11-13T06:40:45.667Z,61.00
2017-11-13T06:43:13.938Z,60.70
2017-11-13T06:45:42.236Z,61.00
2017-11-13T06:48:10.719Z,61.10
2017-11-13T06:50:39.005Z,61.20
2017-11-13T06:53:07.280Z,60.90
2017-11-13T06:55:35.557Z,60.60
2017-11-13T06:58:03.823Z,60.70
2017-11-13T07:00:32.068Z,60.60
2017-11-13T07:03:01.299Z,60.20
2017-11-13T07:05:29.542Z,60.30
2017-11-13T07:07:57.793Z,60.00
2017-11-13T07:10:26.580Z,59.70
2017-11-13T07:12:54.833Z,60.00
2017-11-13T07:15:23.117Z,60.00
2017-11-13T07:17:51.357Z,59.80
2017-11-13T07:20:19.639Z,59.70
2017-11-13T07:22:47.891Z,59.70
2017-11-13T07:25:16.170Z,59.50
2017-11-13T07:27:45.193Z,59.60
2017-11-13T07:30:13.481Z,59.30
2017-11-13T07:32:41.757Z,59.40
2017-11-13T07:35:10.997Z,59.80
2017-11-13T07:37:40.410Z,60.00
2017-11-13T07:40:09.449Z,60.40
2017-11-13T07:42:38.394Z,60.30
2017-11-13T07:45:06.656Z,60.10
2017-11-13T07:47:35.688Z,60.70
2017-11-13T07:50:04.121Z,60.10
2017-11-13T07:52:35.667Z,60.00
2017-11-13T07:55:03.931Z,60.00
2017-11-13T07:57:32.354Z,59.60
2017-11-13T08:00:02.830Z,59.80
2017-11-13T08:02:32.346Z,59.60
2017-11-13T08:05:00.746Z,59.90
2017-11-13T08:07:30.247Z,59.90
2017-11-13T08:09:59.457Z,59.70
2017-11-13T08:12:28.177Z,59.80
2017-11-13T08:14:58.422Z,60.10
2017-11-13T08:17:26.810Z,60.00
2017-11-13T08:20:00.792Z,59.90
2017-11-13T08:22:29.993Z,59.90
2017-11-13T08:25:00.782Z,59.90
2017-11-13T08:27:32.312Z,60.00
2017-11-13T08:30:01.059Z,59.80
2017-11-13T08:32:29.759Z,59.80
2017-11-13T08:34:58.104Z,59.80
2017-11-13T08:37:28.265Z,59.40
2017-11-13T08:40:01.891Z,59.70
2017-11-13T08:42:30.633Z,59.60
2017-11-13T08:44:59.236Z,59.90
2017-11-13T08:47:27.599Z,60.00
2017-11-13T08:49:55.862Z,59.90
2017-11-13T08:52:25.936Z,60.00
2017-11-13T08:54:54.209Z,59.90
2017-11-13T08:57:22.779Z,60.10
2017-11-13T08:59:51.019Z,60.30
2017-11-13T09:02:19.258Z,60.10
2017-11-13T09:04:47.741Z,60.60
2017-11-13T09:07:15.967Z,60.30
2017-11-13T09:09:44.247Z,60.10
2017-11-13T09:12:12.480Z,60.10
2017-11-13T09:14:41.647Z,60.10
2017-11-13T09:17:09.920Z,60.00
2017-11-13T09:19:38.179Z,60.00
2017-11-13T09:22:06.427Z,59.80
2017-11-13T09:24:34.697Z,59.80
2017-11-13T09:27:02.950Z,59.80
2017-11-13T09:29:31.205Z,59.70
2017-11-13T09:31:59.494Z,59.80
2017-11-13T09:34:27.738Z,59.50
2017-11-13T09:36:55.974Z,59.80
2017-11-13T09:39:25.027Z,59.70
2017-11-13T09:41:53.391Z,59.70
2017-11-13T09:44:21.732Z,59.90
2017-11-13T09:46:50.089Z,59.60
2017-11-13T09:49:18.386Z,59.20
2017-11-13T09:51:47.547Z,59.10
2017-11-13T09:54:15.874Z,59.10
2017-11-13T09:56:44.217Z,59.10
2017-11-13T09:59:12.613Z,59.00
2017-11-13T10:01:41.076Z,59.10
2017-11-13T10:04:09.387Z,59.30
2017-11-13T10:06:37.787Z,59.10
2017-11-13T10:09:06.983Z,58.40
2017-11-13T10:11:35.400Z,58.70
2017-11-13T10:14:04.290Z,58.60
2017-11-13T10:16:33.357Z,58.80
2017-11-13T10:19:01.710Z,58.70
2017-11-13T10:21:30.091Z,58.30
2017-11-13T10:23:58.530Z,58.40
2017-11-13T10:26:26.933Z,58.40
2017-11-13T10:28:55.327Z,58.20
2017-11-13T10:31:23.806Z,58.10
2017-11-13T10:33:54.389Z,58.00
2017-11-13T10:36:22.737Z,58.10
2017-11-13T10:38:51.366Z,57.80
2017-11-13T10:41:19.752Z,57.90
2017-11-13T10:43:48.806Z,57.90
2017-11-13T10:46:18.036Z,57.80
2017-11-13T10:48:46.405Z,57.90
2017-11-13T10:51:15.759Z,57.70
2017-11-13T10:53:44.118Z,57.20
2017-11-13T10:56:12.469Z,57.00
2017-11-13T10:58:41.588Z,57.10
2017-11-13T11:01:10.016Z,56.90
2017-11-13T11:03:38.321Z,57.20
2017-11-13T11:06:06.668Z,56.80
2017-11-13T11:08:35.957Z,56.60
2017-11-13T11:11:04.572Z,56.40
2017-11-13T11:16:46.670Z,56.10
2017-11-13T11:19:25.830Z,56.40
2017-11-13T11:25:03.605Z,56.60
2017-11-13T11:27:31.952Z,55.70
2017-11-13T11:30:05.999Z,56.20
2017-11-13T11:32:40.025Z,55.40
2017-11-13T11:38:13.747Z,55.20
2017-11-13T11:40:43.993Z,55.00
2017-11-13T11:43:12.305Z,55.40
2017-11-13T11:48:55.509Z,54.30
2017-11-13T11:51:23.793Z,54.60
2017-11-13T11:53:52.759Z,54.60
2017-11-13T11:56:21.116Z,54.80
2017-11-13T11:58:50.348Z,55.50
2017-11-13T12:01:18.712Z,54.50
2017-11-13T12:03:47.225Z,54.80
2017-11-13T12:06:15.522Z,54.60
2017-11-13T12:08:43.821Z,54.30
2017-11-13T12:11:13.105Z,54.40
2017-11-13T12:13:41.409Z,54.40
2017-11-13T12:16:10.858Z,54.40
2017-11-13T12:18:39.189Z,54.50
2017-11-13T12:21:07.529Z,54.40
2017-11-13T12:23:35.874Z,54.40
2017-11-13T12:26:04.151Z,54.30
2017-11-13T12:28:32.460Z,54.30
2017-11-13T12:31:00.798Z,54.30
2017-11-13T12:33:29.233Z,54.20
2017-11-13T12:35:57.694Z,54.30
2017-11-13T12:38:26.979Z,54.20
2017-11-13T12:40:55.463Z,53.50
2017-11-13T12:43:23.758Z,54.10
2017-11-13T12:45:52.808Z,54.10
2017-11-13T12:48:21.272Z,53.80
2017-11-13T12:50:49.591Z,53.80
2017-11-13T12:53:17.925Z,54.00
2017-11-13T12:55:46.213Z,54.10
2017-11-13T12:58:14.554Z,54.20
2017-11-13T13:00:43.570Z,54.20
2017-11-13T13:03:11.855Z,54.00
2017-11-13T13:05:40.209Z,54.10
2017-11-13T13:08:09.261Z,54.10
2017-11-13T13:10:37.639Z,54.00
2017-11-13T13:13:06.139Z,54.00
2017-11-13T13:15:35.433Z,53.80
2017-11-13T13:18:03.907Z,54.00
2017-11-13T13:20:32.673Z,53.80
2017-11-13T13:23:01.058Z,53.80
2017-11-13T13:25:29.337Z,53.90
2017-11-13T13:27:57.890Z,53.60
2017-11-13T13:30:26.204Z,53.50
2017-11-13T13:32:54.483Z,53.10
2017-11-13T13:35:22.876Z,53.00
2017-11-13T13:37:51.212Z,53.40
2017-11-13T13:40:19.650Z,53.50
2017-11-13T13:42:47.941Z,53.70
2017-11-13T13:45:16.238Z,53.30
2017-11-13T13:47:44.634Z,53.40
2017-11-13T13:50:12.933Z,53.20
2017-11-13T13:52:42.434Z,53.00
2017-11-13T13:55:10.760Z,53.00
2017-11-13T13:57:39.050Z,53.10
2017-11-13T14:00:07.324Z,52.90
2017-11-13T14:02:35.846Z,53.70
2017-11-13T14:05:04.191Z,52.90
2017-11-13T14:07:33.301Z,53.30
2017-11-13T14:10:03.168Z,53.10
2017-11-13T14:12:32.258Z,53.20
2017-11-13T14:15:01.313Z,53.20
2017-11-13T14:17:30.523Z,53.30
2017-11-13T14:20:09.208Z,53.20
2017-11-13T14:22:39.543Z,53.00
2017-11-13T14:25:13.309Z,53.00
2017-11-13T14:27:42.794Z,53.30
2017-11-13T14:30:12.121Z,53.10
2017-11-13T14:32:42.451Z,53.40
2017-11-13T14:35:17.819Z,53.50
2017-11-13T14:37:47.519Z,53.10
2017-11-13T14:40:20.804Z,53.10
2017-11-13T14:42:51.097Z,53.20
2017-11-13T14:45:23.897Z,53.30
2017-11-13T14:47:52.538Z,53.20
2017-11-13T14:50:21.336Z,52.90
2017-11-13T14:52:50.864Z,53.10
2017-11-13T14:55:24.433Z,52.90
2017-11-13T14:57:52.802Z,52.90
2017-11-13T15:00:23.013Z,52.80
2017-11-13T15:02:56.674Z,53.20
2017-11-13T15:05:26.817Z,53.00
2017-11-13T15:07:56.577Z,53.00
2017-11-13T15:10:25.603Z,53.20
2017-11-13T15:12:54.873Z,53.00
2017-11-13T15:15:27.394Z,53.20
2017-11-13T15:17:55.714Z,53.10
2017-11-13T15:20:25.253Z,53.50
2017-11-13T15:22:54.229Z,53.10
2017-11-13T15:25:26.595Z,53.30
2017-11-13T15:27:55.802Z,53.40
2017-11-13T15:30:28.463Z,53.30
2017-11-13T15:33:01.827Z,53.30
2017-11-13T15:35:34.470Z,53.40
2017-11-13T15:38:07.800Z,53.30
2017-11-13T15:40:40.947Z,53.30
2017-11-13T15:43:09.497Z,53.10
2017-11-13T15:45:37.965Z,53.40
2017-11-13T15:48:07.122Z,53.40
2017-11-13T15:50:40.094Z,53.40
2017-11-13T15:53:08.430Z,53.40
2017-11-13T15:55:36.823Z,53.30
2017-11-13T15:58:05.091Z,53.00
2017-11-13T16:00:33.516Z,53.50
2017-11-13T16:03:01.803Z,53.50
2017-11-13T16:05:30.106Z,53.50
2017-11-13T16:07:58.424Z,53.70
2017-11-13T16:10:27.563Z,53.60
2017-11-13T16:12:55.854Z,53.70
2017-11-13T16:15:24.135Z,53.50
2017-11-13T16:17:52.454Z,53.70
2017-11-13T16:20:22.290Z,53.40
2017-11-13T16:22:50.573Z,53.10
2017-11-13T16:25:18.925Z,53.30
2017-11-13T16:27:47.955Z,52.80
2017-11-13T16:30:16.480Z,53.00
2017-11-13T16:32:44.752Z,53.40
2017-11-13T16:35:13.023Z,52.90
2017-11-13T16:37:41.275Z,53.20
2017-11-13T16:40:09.587Z,53.10
2017-11-13T16:42:37.874Z,53.40
2017-11-13T16:45:07.168Z,53.70
2017-11-13T16:47:36.168Z,53.40
2017-11-13T16:50:05.267Z,53.00
2017-11-13T16:52:34.273Z,53.30
2017-11-13T16:55:02.554Z,53.70
2017-11-13T16:57:31.003Z,53.60
2017-11-13T16:59:59.296Z,53.30
2017-11-13T17:02:28.328Z,54.00
2017-11-13T17:04:56.593Z,54.30
2017-11-13T17:07:25.610Z,53.70
2017-11-13T17:09:53.898Z,53.90
2017-11-13T17:12:22.196Z,53.80
2017-11-13T17:14:50.488Z,54.00
2017-11-13T17:17:19.534Z,53.90
2017-11-13T17:19:48.773Z,54.00
2017-11-13T17:22:17.920Z,54.00
2017-11-13T17:24:46.168Z,54.10
2017-11-13T17:27:14.411Z,54.40
2017-11-13T17:29:44.314Z,54.30
2017-11-13T17:32:12.633Z,54.40
2017-11-13T17:34:40.893Z,54.40
2017-11-13T17:37:09.942Z,54.60
2017-11-13T17:39:38.390Z,54.50
2017-11-13T17:42:06.665Z,54.30
2017-11-13T17:44:34.959Z,54.70
2017-11-13T17:47:03.219Z,54.40
2017-11-13T17:49:31.458Z,54.50
2017-11-13T17:52:01.883Z,54.60
2017-11-13T17:54:30.113Z,54.50
2017-11-13T17:56:58.362Z,54.40
2017-11-13T17:59:27.415Z,54.70
2017-11-13T18:01:55.689Z,54.70
2017-11-13T18:04:24.005Z,54.90
2017-11-13T18:06:52.369Z,55.20
2017-11-13T18:09:21.405Z,55.20
2017-11-13T18:11:49.856Z,55.10
2017-11-13T18:14:18.895Z,55.00
2017-11-13T18:16:47.143Z,55.20
2017-11-13T18:19:15.452Z,55.40
2017-11-13T18:21:43.859Z,55.30
2017-11-13T18:24:14.104Z,55.30
2017-11-13T18:26:42.598Z,55.50
2017-11-13T18:29:11.004Z,55.50
2017-11-13T18:31:39.358Z,55.50
2017-11-13T18:34:09.454Z,55.60
2017-11-13T18:36:37.821Z,55.60
2017-11-13T18:39:06.150Z,55.50
2017-11-13T18:41:35.502Z,55.90
2017-11-13T18:44:03.853Z,55.60
2017-11-13T18:46:32.842Z,55.60
2017-11-13T18:49:01.554Z,55.70
2017-11-13T18:51:30.261Z,55.60
2017-11-13T18:53:58.548Z,56.00
2017-11-13T18:56:26.846Z,55.60
2017-11-13T18:58:55.211Z,55.70
2017-11-13T19:01:23.492Z,55.70
2017-11-13T19:03:51.815Z,55.60
2017-11-13T19:06:20.084Z,56.30
2017-11-13T19:08:49.264Z,55.60
2017-11-13T19:11:17.697Z,55.50
2017-11-13T19:13:45.982Z,55.60
2017-11-13T19:16:15.117Z,55.70
2017-11-13T19:18:43.410Z,55.40
2017-11-13T19:21:11.698Z,55.70
2017-11-13T19:23:39.980Z,55.70
2017-11-13T19:26:09.184Z,55.60
2017-11-13T19:28:37.444Z,55.60
2017-11-13T19:31:07.359Z,55.60
2017-11-13T19:33:35.598Z,55.70
2017-11-13T19:36:03.882Z,55.40
2017-11-13T19:38:32.230Z,55.40
2017-11-13T19:41:00.462Z,55.50
2017-11-13T19:43:28.733Z,56.40
2017-11-13T19:45:57.029Z,55.60
2017-11-13T19:48:25.296Z,56.50
2017-11-13T19:50:53.538Z,56.60
2017-11-13T19:53:22.316Z,55.90
2017-11-13T19:55:50.630Z,55.80
2017-11-13T19:58:18.874Z,55.70
2017-11-13T20:00:47.288Z,55.60
2017-11-13T20:03:15.623Z,55.40
2017-11-13T20:05:43.998Z,55.50
2017-11-13T20:08:12.545Z,55.30
2017-11-13T20:10:41.228Z,54.90
2017-11-13T20:13:09.916Z,54.60
2017-11-13T20:15:39.833Z,54.90
2017-11-13T20:18:08.514Z,54.40
2017-11-13T20:20:37.201Z,54.20
2017-11-13T20:23:05.899Z,54.00
2017-11-13T20:25:34.569Z,54.30
2017-11-13T20:28:03.256Z,54.10
2017-11-13T20:30:31.666Z,53.90
2017-11-13T20:33:00.832Z,53.80
2017-11-13T20:35:29.196Z,53.80
2017-11-13T20:37:58.349Z,53.90
2017-11-13T20:40:27.244Z,53.90
2017-11-13T20:42:56.490Z,54.00
2017-11-13T20:45:24.838Z,53.80
2017-11-13T20:47:53.102Z,54.10
2017-11-13T20:50:21.414Z,54.10
2017-11-13T20:52:49.678Z,54.00
2017-11-13T20:55:17.964Z,53.90
2017-11-13T20:57:47.264Z,54.00
2017-11-13T21:00:15.567Z,54.20
2017-11-13T21:02:43.907Z,54.10
2017-11-13T21:05:12.213Z,54.10
2017-11-13T21:07:40.479Z,54.30
2017-11-13T21:10:08.870Z,55.10
2017-11-13T21:12:37.896Z,54.50
2017-11-13T21:15:09.109Z,54.30
2017-11-13T21:17:37.354Z,54.30
2017-11-13T21:20:05.671Z,55.00
2017-11-13T21:22:33.959Z,54.30
2017-11-13T21:25:02.249Z,54.30
2017-11-13T21:27:30.670Z,54.50
2017-11-13T21:30:00.747Z,55.40
2017-11-13T21:32:29.880Z,54.90
2017-11-13T21:34:58.338Z,54.70
2017-11-13T21:37:26.642Z,54.70
2017-11-13T21:39:55.623Z,54.80
2017-11-13T21:42:23.888Z,55.10
2017-11-13T21:44:52.176Z,54.40
2017-11-13T21:47:21.246Z,54.30
2017-11-13T21:49:51.419Z,54.20
2017-11-13T21:52:20.584Z,54.20
2017-11-13T21:54:53.374Z,54.40
2017-11-13T21:57:21.774Z,54.30
2017-11-13T21:59:51.197Z,54.20
2017-11-13T22:02:19.672Z,54.20
2017-11-13T22:04:47.962Z,55.00
2017-11-13T22:07:16.259Z,55.10
2017-11-13T22:09:46.006Z,54.70
2017-11-13T22:12:18.620Z,55.40
2017-11-13T22:14:47.631Z,54.60
2017-11-13T22:17:17.592Z,56.00
2017-11-13T22:19:46.490Z,55.50
2017-11-13T22:22:17.830Z,55.50
2017-11-13T22:24:51.938Z,55.80
2017-11-13T22:27:26.580Z,55.60
2017-11-13T22:29:59.396Z,55.60
2017-11-13T22:32:33.277Z,55.70
2017-11-13T22:35:06.022Z,55.90
2017-11-13T22:37:37.430Z,55.50
2017-11-13T22:40:06.848Z,55.70
2017-11-13T22:42:35.296Z,55.70
2017-11-13T22:45:04.572Z,55.90
2017-11-13T22:47:35.324Z,55.90
2017-11-13T22:52:52.757Z,56.00
2017-11-13T22:55:32.551Z,55.80
2017-11-13T22:58:06.608Z,55.90
2017-11-13T23:03:17.130Z,55.90
2017-11-13T23:05:47.191Z,56.00
2017-11-13T23:08:21.719Z,56.00
2017-11-13T23:10:52.151Z,56.00
2017-11-13T23:13:22.623Z,56.20
2017-11-13T23:15:52.434Z,56.30
2017-11-13T23:18:21.507Z,55.90
2017-11-13T23:20:50.441Z,56.30
2017-11-13T23:23:22.884Z,56.40
2017-11-13T23:25:51.362Z,56.40
2017-11-13T23:28:27.075Z,57.10
2017-11-13T23:30:55.361Z,56.50
2017-11-13T23:33:23.783Z,56.50
2017-11-13T23:35:52.241Z,56.50
2017-11-13T23:38:21.440Z,56.10
2017-11-13T23:40:49.803Z,56.30
2017-11-13T23:43:18.962Z,56.90
2017-11-13T23:45:48.207Z,56.30
2017-11-13T23:48:16.575Z,56.10
2017-11-13T23:50:44.870Z,56.20
2017-11-13T23:53:13.159Z,56.20
2017-11-13T23:55:41.395Z,56.00
2017-11-13T23:58:09.817Z,56.20
